Time;durP1;ratioP1;P1;durP2;ratioP2;P2;SDS_P1;SDS_P2;PMS_P1;PMS_P2;Temp;Humidity;BMP_temperature;BMP_pressure;BME280_temperature;BME280_humidity;BME280_pressure;Samples;Min_cycle;Max_cycle;Signal;HPM_P1;HPM_P2
2021/08/29 00:00:25;;;;;;;1.88;1.52;;;;;;;14.44;100.00;100807.50;5017021;28;20053;-86
2021/08/29 00:02:51;;;;;;;1.73;1.48;;;;;;;14.50;100.00;100802.88;5021540;28;20068;-85
2021/08/29 00:05:22;;;;;;;1.83;1.58;;;;;;;14.53;100.00;100805.41;5041703;28;20099;-85
2021/08/29 00:07:54;;;;;;;1.88;1.60;;;;;;;14.43;100.00;100796.00;5042363;28;20043;-86
2021/08/29 00:10:21;;;;;;;2.28;1.85;;;;;;;14.42;100.00;100796.06;5038010;28;20033;-86
2021/08/29 00:12:48;;;;;;;2.15;1.60;;;;;;;14.39;100.00;100791.72;5036892;28;20623;-85
2021/08/29 00:15:15;;;;;;;1.95;1.67;;;;;;;14.43;100.00;100797.78;5021154;28;20044;-86
2021/08/29 00:17:42;;;;;;;2.15;1.60;;;;;;;14.45;100.00;100791.53;5010123;28;20048;-87
2021/08/29 00:20:09;;;;;;;2.75;1.88;;;;;;;14.52;100.00;100798.38;5031491;28;20037;-86
2021/08/29 00:22:36;;;;;;;2.28;1.85;;;;;;;14.46;100.00;100797.69;5023327;28;20065;-87
2021/08/29 00:25:31;;;;;;;4.65;1.85;;;;;;;14.40;100.00;100787.28;5030392;28;20094;-86
2021/08/29 00:27:58;;;;;;;;;;;;;;;14.40;100.00;100782.81;5049299;28;20398;-86
2021/08/29 00:30:25;;;;;;;1.40;1.30;;;;;;;14.37;100.00;100785.56;5039204;28;19920;-86
2021/08/29 00:32:52;;;;;;;2.08;1.50;;;;;;;14.25;100.00;100783.34;5022835;28;20055;-86
2021/08/29 00:35:19;;;;;;;1.65;1.45;;;;;;;14.26;100.00;100779.75;5021591;28;20045;-86
2021/08/29 00:37:45;;;;;;;1.30;1.10;;;;;;;14.27;100.00;100779.69;5041898;28;20040;-87
2021/08/29 00:40:15;;;;;;;3.03;1.27;;;;;;;14.31;100.00;100784.00;5011592;28;20045;-86
2021/08/29 00:42:43;;;;;;;1.40;1.30;;;;;;;14.36;100.00;100776.72;5031105;28;20506;-86
2021/08/29 00:45:10;;;;;;;2.00;1.60;;;;;;;14.36;100.00;100784.69;5015324;28;20044;-86
2021/08/29 00:47:39;;;;;;;1.80;1.30;;;;;;;14.37;100.00;100782.91;5030424;28;20557;-86
2021/08/29 00:50:07;;;;;;;2.35;1.35;;;;;;;14.36;100.00;100781.19;5036131;28;20040;-86
2021/08/29 00:52:40;;;;;;;1.83;1.30;;;;;;;14.34;100.00;100778.56;5021418;28;20082;-86
2021/08/29 00:55:11;;;;;;;;;;;;;;;14.30;100.00;100781.41;5025124;28;20040;-85
2021/08/29 00:57:44;;;;;;;2.00;1.15;;;;;;;14.30;100.00;100782.28;5034534;28;20421;-87
2021/08/29 01:00:11;;;;;;;1.38;1.25;;;;;;;14.31;100.00;100770.72;5026097;28;20041;-86
2021/08/29 01:02:39;;;;;;;1.85;1.20;;;;;;;14.35;100.00;100774.13;5052138;28;20063;-87
2021/08/29 01:05:09;;;;;;;1.23;1.00;;;;;;;14.37;100.00;100774.94;5034565;28;20051;-86
2021/08/29 01:07:39;;;;;;;2.17;1.10;;;;;;;14.37;100.00;100772.28;5032083;28;20041;-86
2021/08/29 01:10:15;;;;;;;1.35;1.25;;;;;;;14.42;100.00;100777.44;5033973;28;20036;-86
2021/08/29 01:13:02;;;;;;;1.25;1.08;;;;;;;14.38;100.00;100774.03;5037176;28;20098;-86
2021/08/29 01:15:32;;;;;;;1.10;1.00;;;;;;;14.35;100.00;100776.78;5034904;28;20056;-85
2021/08/29 01:18:00;;;;;;;1.63;1.10;;;;;;;14.31;100.00;100769.84;5036293;28;20044;-84
2021/08/29 01:20:37;;;;;;;1.40;0.80;;;;;;;14.31;100.00;100773.38;5032335;28;20631;-86
2021/08/29 01:23:10;;;;;;;1.35;1.20;;;;;;;14.33;100.00;100771.53;5020159;28;20063;-86
2021/08/29 01:25:39;;;;;;;2.45;1.20;;;;;;;14.42;100.00;100777.44;5014751;28;20045;-86
2021/08/29 01:28:16;;;;;;;2.10;1.85;;;;;;;14.34;100.00;100777.72;5014706;28;20088;-86
2021/08/29 01:30:47;;;;;;;1.58;1.30;;;;;;;14.34;100.00;100773.25;5029373;28;20040;-85
2021/08/29 01:33:14;;;;;;;1.20;1.10;;;;;;;14.29;100.00;100772.56;5036585;28;20072;-85
2021/08/29 01:35:41;;;;;;;1.55;1.23;;;;;;;14.30;100.00;100770.78;5035475;28;20037;-85
2021/08/29 01:38:08;;;;;;;3.00;1.30;;;;;;;14.29;100.00;100775.22;5019992;28;20052;-85
2021/08/29 01:40:36;;;;;;;1.90;1.20;;;;;;;14.30;100.00;100766.31;5051188;28;20078;-85
2021/08/29 01:43:03;;;;;;;1.38;1.20;;;;;;;14.28;100.00;100765.47;5016631;28;20137;-85
2021/08/29 01:45:31;;;;;;;1.20;1.05;;;;;;;14.27;100.00;100771.72;5024403;28;20037;-87
2021/08/29 01:47:58;;;;;;;2.88;1.35;;;;;;;14.30;100.00;100768.13;5051812;28;20044;-84
2021/08/29 01:50:26;;;;;;;4.25;1.45;;;;;;;14.30;100.00;100760.16;5034013;28;20040;-85
2021/08/29 01:52:52;;;;;;;1.50;1.40;;;;;;;14.28;100.00;100767.28;5010545;28;20044;-84
2021/08/29 01:55:19;;;;;;;1.65;1.05;;;;;;;14.29;100.00;100763.69;5030223;28;20711;-84
2021/08/29 01:57:46;;;;;;;2.53;1.27;;;;;;;14.29;100.00;100767.25;5033680;28;20094;-85
2021/08/29 02:00:12;;;;;;;2.03;1.25;;;;;;;14.27;100.00;100763.75;5029392;28;20044;-85
2021/08/29 02:02:41;;;;;;;1.90;1.50;;;;;;;14.24;100.00;100763.00;5050192;28;20493;-85
2021/08/29 02:05:09;;;;;;;1.98;1.10;;;;;;;14.21;100.00;100763.97;5018348;28;20049;-85
2021/08/29 02:07:43;;;;;;;2.15;1.40;;;;;;;14.25;100.00;100764.72;5025337;28;20044;-86
2021/08/29 02:10:11;;;;;;;1.83;1.23;;;;;;;14.27;100.00;100766.41;5032256;28;20049;-85
2021/08/29 02:12:44;;;;;;;2.22;1.40;;;;;;;14.30;100.00;100770.78;5050278;28;20041;-85
2021/08/29 02:15:16;;;;;;;2.25;1.30;;;;;;;14.27;100.00;100760.22;5024250;28;20045;-86
2021/08/29 02:17:43;;;;;;;2.72;1.40;;;;;;;14.22;100.00;100757.75;5020374;28;20045;-84
2021/08/29 02:20:15;;;;;;;2.72;1.50;;;;;;;14.23;100.00;100755.94;5033224;28;20037;-85
2021/08/29 02:22:42;;;;;;;2.05;1.20;;;;;;;14.19;100.00;100756.97;5012380;28;20525;-83
2021/08/29 02:25:10;;;;;;;1.75;1.20;;;;;;;14.12;100.00;100750.13;5025268;28;20490;-85
2021/08/29 02:27:40;;;;;;;1.73;1.50;;;;;;;14.12;100.00;100750.13;5040883;28;20413;-83
2021/08/29 02:30:07;;;;;;;0.98;0.85;;;;;;;14.05;100.00;100750.34;5026415;28;20041;-83
2021/08/29 02:32:39;;;;;;;2.40;1.50;;;;;;;14.07;100.00;100750.28;5019324;28;20041;-84
2021/08/29 02:35:06;;;;;;;1.73;1.40;;;;;;;14.06;100.00;100749.41;5021343;28;20440;-83
2021/08/29 02:37:34;;;;;;;1.70;1.10;;;;;;;14.07;100.00;100756.47;5048494;28;20056;-84
2021/08/29 02:40:03;;;;;;;1.48;1.23;;;;;;;14.08;100.00;100750.22;5020041;28;20128;-83
2021/08/29 02:42:30;;;;;;;2.10;1.60;;;;;;;14.09;100.00;100741.34;5038126;28;20036;-82
2021/08/29 02:45:00;;;;;;;1.52;1.40;;;;;;;14.11;100.00;100745.72;5020297;28;20152;-84
2021/08/29 02:47:28;;;;;;;1.95;1.50;;;;;;;14.13;100.00;100734.16;5017349;28;20044;-84
2021/08/29 02:49:54;;;;;;;2.13;1.45;;;;;;;14.09;100.00;100730.72;5020449;28;20032;-83
2021/08/29 02:52:21;;;;;;;2.53;1.55;;;;;;;14.11;100.00;100735.09;5034204;28;20045;-84
2021/08/29 02:54:49;;;;;;;3.08;1.67;;;;;;;14.12;100.00;100734.16;5037362;28;20405;-84
2021/08/29 02:57:17;;;;;;;2.72;1.67;;;;;;;14.09;100.00;100740.47;5036285;28;20047;-84
2021/08/29 02:59:44;;;;;;;2.28;1.67;;;;;;;14.06;100.00;100741.44;5011414;28;20417;-84
2021/08/29 03:02:11;;;;;;;1.88;1.38;;;;;;;14.04;100.00;100735.31;5034249;28;20047;-83
2021/08/29 03:04:39;;;;;;;2.00;1.60;;;;;;;14.07;100.00;100732.56;5035533;28;21541;-83
2021/08/29 03:07:06;;;;;;;2.25;1.40;;;;;;;14.09;100.00;100735.16;5054800;28;20037;-83
2021/08/29 03:09:35;;;;;;;2.45;1.80;;;;;;;14.12;100.00;100732.38;5020052;28;20506;-83
2021/08/29 03:12:07;;;;;;;2.63;1.60;;;;;;;14.14;100.00;100735.00;5022080;28;20052;-84
2021/08/29 03:14:35;;;;;;;1.98;1.65;;;;;;;14.14;100.00;100738.53;5021212;28;20044;-83
2021/08/29 03:17:02;;;;;;;3.20;1.75;;;;;;;14.14;100.00;100730.56;5019730;28;20040;-84
2021/08/29 03:19:29;;;;;;;4.43;2.00;;;;;;;14.18;100.00;100736.63;5019973;28;20036;-83
2021/08/29 03:21:56;;;;;;;2.45;2.00;;;;;;;14.16;100.00;100719.88;5025818;28;20052;-83
2021/08/29 03:24:23;;;;;;;2.40;1.83;;;;;;;14.20;100.00;100729.47;5038052;28;20047;-84
2021/08/29 03:26:50;;;;;;;5.20;1.90;;;;;;;14.20;100.00;100735.66;5042081;28;20040;-84
2021/08/29 03:29:18;;;;;;;2.78;1.45;;;;;;;14.18;100.00;100737.50;5019604;28;20040;-84
2021/08/29 03:31:44;;;;;;;2.97;1.80;;;;;;;14.18;100.00;100733.97;5021831;28;20102;-85
2021/08/29 03:34:17;;;;;;;1.88;1.45;;;;;;;14.17;100.00;100734.91;5036259;28;20051;-85
2021/08/29 03:36:44;;;;;;;2.05;1.73;;;;;;;14.18;100.00;100723.34;5057367;28;20098;-85
2021/08/29 03:39:11;;;;;;;2.28;1.80;;;;;;;14.18;100.00;100720.69;5011116;28;20037;-84
2021/08/29 03:41:40;;;;;;;2.30;1.90;;;;;;;14.17;100.00;100722.47;5023292;28;20094;-85
2021/08/29 03:44:12;;;;;;;4.30;2.33;;;;;;;14.20;100.00;100716.19;5030974;28;20099;-86
2021/08/29 03:46:39;;;;;;;3.33;2.33;;;;;;;14.23;100.00;100718.75;5034466;28;20056;-86
2021/08/29 03:49:07;;;;;;;3.22;2.60;;;;;;;14.25;100.00;100720.44;5018807;28;20040;-86
2021/08/29 03:51:34;;;;;;;3.97;2.60;;;;;;;14.23;100.00;100714.31;5021879;28;20044;-86
2021/08/29 03:54:01;;;;;;;2.97;2.13;;;;;;;14.23;100.00;100716.97;5021071;28;20045;-87
2021/08/29 03:56:29;;;;;;;2.70;2.20;;;;;;;14.25;100.00;100723.09;5054713;28;20051;-84
2021/08/29 03:58:56;;;;;;;2.50;2.08;;;;;;;14.23;100.00;100716.97;5037631;28;20048;-85
2021/08/29 04:01:23;;;;;;;2.58;2.20;;;;;;;14.23;100.00;100718.75;5017961;28;20128;-84
2021/08/29 04:03:50;;;;;;;3.50;2.88;;;;;;;14.23;100.00;100722.28;5021593;28;20131;-85
2021/08/29 04:06:17;;;;;;;3.10;2.15;;;;;;;14.25;100.00;100722.22;5042775;28;20044;-85
2021/08/29 04:08:46;;;;;;;3.70;2.40;;;;;;;14.24;100.00;100721.34;5040269;28;20093;-85
2021/08/29 04:11:13;;;;;;;2.95;2.42;;;;;;;14.23;100.00;100721.41;5028970;28;20036;-85
2021/08/29 04:13:41;;;;;;;3.08;2.30;;;;;;;14.23;100.00;100721.41;5034310;28;20049;-85
2021/08/29 04:16:07;;;;;;;4.20;2.65;;;;;;;14.25;100.00;100724.88;5017831;28;20049;-85
2021/08/29 04:18:43;;;;;;;3.47;2.50;;;;;;;14.26;100.00;100724.81;5020004;28;20068;-85
2021/08/29 04:21:11;;;;;;;4.20;2.40;;;;;;;14.27;100.00;100729.19;5044456;28;20036;-86
2021/08/29 04:23:38;;;;;;;3.20;2.58;;;;;;;14.28;100.00;100728.28;5032462;28;20052;-85
2021/08/29 04:26:08;;;;;;;3.78;3.13;;;;;;;14.33;100.00;100723.69;5046702;28;20109;-85
2021/08/29 04:28:35;;;;;;;3.20;2.42;;;;;;;14.31;100.00;100724.66;5022551;28;20063;-84
2021/08/29 04:31:08;;;;;;;3.50;2.50;;;;;;;14.30;100.00;100726.47;5021051;28;20048;-85
2021/08/29 04:33:35;;;;;;;2.92;2.38;;;;;;;14.30;100.00;100728.25;5025168;28;20036;-85
2021/08/29 04:36:08;;;;;;;2.75;2.47;;;;;;;14.31;100.00;100732.66;5033771;28;20045;-85
2021/08/29 04:38:36;;;;;;;2.67;2.22;;;;;;;14.27;100.00;100729.19;5019108;28;20036;-85
2021/08/29 04:41:03;;;;;;;3.13;2.22;;;;;;;14.28;100.00;100727.41;5032673;28;20563;-86
2021/08/29 04:43:30;;;;;;;3.95;2.78;;;;;;;14.29;100.00;100722.06;5016839;28;20405;-87
2021/08/29 04:45:57;;;;;;;3.90;2.75;;;;;;;14.34;100.00;100730.72;5016729;28;20452;-85
2021/08/29 04:48:24;;;;;;;3.70;2.88;;;;;;;14.32;100.00;100723.75;5050042;28;20135;-88
2021/08/29 04:50:50;;;;;;;3.17;2.55;;;;;;;14.32;100.00;100724.63;5027864;28;20040;-85
2021/08/29 04:53:17;;;;;;;3.92;2.65;;;;;;;14.34;100.00;100727.22;5039781;28;20041;-84
2021/08/29 04:55:43;;;;;;;3.03;2.15;;;;;;;14.33;100.00;100728.13;5033508;28;20402;-84
2021/08/29 04:58:10;;;;;;;2.85;2.30;;;;;;;14.34;100.00;100728.06;5030447;28;20051;-84
2021/08/29 05:00:37;;;;;;;3.25;2.33;;;;;;;14.34;100.00;100735.19;5038045;28;20044;-84
2021/08/29 05:03:07;;;;;;;2.90;2.20;;;;;;;14.32;100.00;100737.03;5036357;28;20048;-86
2021/08/29 05:05:34;;;;;;;3.60;2.38;;;;;;;14.32;100.00;100739.69;5036208;28;20106;-84
2021/08/29 05:08:00;;;;;;;2.97;2.03;;;;;;;14.32;100.00;100735.25;5051075;28;20041;-85
2021/08/29 05:10:27;;;;;;;3.00;2.17;;;;;;;14.33;100.00;100738.75;5009409;28;20040;-86
2021/08/29 05:12:54;;;;;;;3.03;2.03;;;;;;;14.34;100.00;100738.72;5019977;28;20133;-86
2021/08/29 05:15:20;;;;;;;3.35;2.22;;;;;;;14.36;100.00;100736.84;5035422;28;20524;-85
2021/08/29 05:17:47;;;;;;;4.13;2.42;;;;;;;14.37;100.00;100735.06;5016571;28;20106;-85
2021/08/29 05:20:14;;;;;;;2.67;2.13;;;;;;;14.38;100.00;100736.84;5016250;28;20037;-86
2021/08/29 05:22:41;;;;;;;2.97;2.17;;;;;;;14.40;100.00;100737.63;5032944;28;20036;-86
2021/08/29 05:25:09;;;;;;;3.63;2.08;;;;;;;14.36;100.00;100738.66;5025707;28;21583;-86
2021/08/29 05:27:39;;;;;;;2.53;1.70;;;;;;;14.34;100.00;100744.03;5042386;28;20048;-87
2021/08/29 05:30:06;;;;;;;3.03;1.60;;;;;;;14.36;100.00;100746.63;5011517;28;20128;-87
2021/08/29 05:32:33;;;;;;;2.33;1.58;;;;;;;14.33;100.00;100747.59;5027888;28;20052;-86
2021/08/29 05:35:01;;;;;;;3.00;1.55;;;;;;;14.34;100.00;100748.47;5046874;28;20044;-85
2021/08/29 05:37:28;;;;;;;2.15;1.48;;;;;;;14.35;100.00;100748.41;5030260;28;20037;-86
2021/08/29 05:39:55;;;;;;;1.90;1.23;;;;;;;14.34;100.00;100745.81;5018057;28;20571;-89
2021/08/29 05:42:22;;;;;;;1.48;1.00;;;;;;;14.32;100.00;100745.88;5031540;28;20040;-87
2021/08/29 05:44:50;;;;;;;2.45;1.15;;;;;;;14.33;100.00;100752.91;5036361;28;20264;-85
2021/08/29 05:47:18;;;;;;;1.75;1.27;;;;;;;14.35;100.00;100744.88;5020899;28;20059;-86
2021/08/29 05:49:50;;;;;;;2.35;1.10;;;;;;;14.35;100.00;100748.41;5035509;28;20048;-86
2021/08/29 05:52:28;;;;;;;1.02;0.82;;;;;;;14.34;100.00;100745.81;5023357;28;20040;-87
2021/08/29 05:54:56;;;;;;;1.73;1.00;;;;;;;14.38;100.00;100742.16;5017700;28;20056;-86
2021/08/29 05:57:27;;;;;;;1.42;0.88;;;;;;;14.43;100.00;100739.31;5036789;28;20049;-88
2021/08/29 05:59:59;;;;;;;3.00;1.20;;;;;;;14.43;100.00;100741.97;5020349;28;20044;-88
2021/08/29 06:02:27;;;;;;;2.00;0.90;;;;;;;14.45;100.00;100735.69;5025798;28;20428;-88
2021/08/29 06:04:55;;;;;;;1.67;0.93;;;;;;;14.44;100.00;100736.59;5038654;28;20532;-87
2021/08/29 06:07:23;;;;;;;1.10;0.80;;;;;;;14.53;100.00;100728.31;5018188;28;20056;-84
2021/08/29 06:09:50;;;;;;;1.05;0.88;;;;;;;14.57;100.00;100727.31;5038270;28;20082;-86
2021/08/29 06:12:17;;;;;;;1.70;1.00;;;;;;;14.49;100.00;100721.41;5023967;28;20055;-87
2021/08/29 06:14:44;;;;;;;1.48;0.85;;;;;;;14.48;100.00;100724.13;5042122;28;20041;-85
2021/08/29 06:17:10;;;;;;;0.80;0.60;;;;;;;14.46;100.00;100734.81;5024282;28;20587;-86
2021/08/29 06:19:37;;;;;;;1.38;0.70;;;;;;;14.47;100.00;100738.34;5039721;28;20113;-86
2021/08/29 06:22:04;;;;;;;1.45;1.00;;;;;;;14.55;100.00;100737.13;5056903;28;20493;-87
2021/08/29 06:24:31;;;;;;;1.30;0.93;;;;;;;14.52;100.00;100733.69;5038976;28;20048;-86
2021/08/29 06:26:58;;;;;;;0.82;0.65;;;;;;;14.44;100.00;100735.72;5025213;28;20041;-88
2021/08/29 06:29:25;;;;;;;1.42;0.80;;;;;;;14.43;100.00;100745.50;5024669;28;20496;-88
2021/08/29 06:31:54;;;;;;;1.17;0.70;;;;;;;14.40;100.00;100740.28;5028286;28;20040;-89
2021/08/29 06:34:22;;;;;;;1.15;0.75;;;;;;;14.43;100.00;100740.19;5040041;28;20074;-85
2021/08/29 06:36:48;;;;;;;0.90;0.70;;;;;;;14.44;100.00;100731.28;5038815;28;20040;-84
2021/08/29 06:39:15;;;;;;;0.75;0.60;;;;;;;14.46;100.00;100723.28;5038388;28;20047;-84
2021/08/29 06:41:41;;;;;;;0.70;0.60;;;;;;;14.42;100.00;100726.94;5035163;28;20037;-87
2021/08/29 06:44:11;;;;;;;1.48;0.75;;;;;;;14.48;100.00;100722.31;5022618;28;20052;-88
2021/08/29 06:47:02;;;;;;;0.85;0.80;;;;;;;14.50;100.00;100715.16;5022898;28;20044;-86
2021/08/29 06:50:33;;;;;;;0.88;0.60;;;;;;;14.53;100.00;100709.72;4989963;28;20038;-85
2021/08/29 06:53:02;;;;;;;1.10;0.88;;;;;;;14.55;100.00;100701.72;4970113;28;20109;-84
2021/08/29 06:55:28;;;;;;;1.10;0.70;;;;;;;14.58;100.00;100691.81;4961682;28;20114;-85
2021/08/29 06:57:55;;;;;;;0.90;0.70;;;;;;;14.59;100.00;100677.59;4945582;28;20058;-85
2021/08/29 07:00:22;;;;;;;1.52;0.80;;;;;;;14.59;100.00;100682.91;4974188;28;20095;-85
2021/08/29 07:02:53;;;;;;;1.48;0.75;;;;;;;14.49;100.00;100696.59;4961613;28;20130;-85
2021/08/29 07:05:22;;;;;;;1.77;0.90;;;;;;;14.46;100.00;100710.88;4971508;28;20689;-85
2021/08/29 07:07:49;;;;;;;2.60;1.67;;;;;;;14.47;100.00;100707.28;4973706;28;20046;-85
2021/08/29 07:10:16;;;;;;;1.95;1.30;;;;;;;14.48;100.00;100710.81;4941091;28;20046;-85
2021/08/29 07:12:42;;;;;;;2.22;1.30;;;;;;;14.53;100.00;100720.34;4957375;28;20046;-87
2021/08/29 07:15:09;;;;;;;1.30;0.82;;;;;;;14.45;100.00;100725.06;4960490;28;20050;-86
2021/08/29 07:17:36;;;;;;;1.00;0.60;;;;;;;14.51;100.00;100730.19;4985675;28;20046;-85
2021/08/29 07:20:04;;;;;;;1.23;0.90;;;;;;;14.56;100.00;100733.56;4957375;28;20493;-85
2021/08/29 07:22:32;;;;;;;1.00;0.60;;;;;;;14.55;100.00;100729.16;4979272;28;20137;-85
2021/08/29 07:25:01;;;;;;;1.65;0.70;;;;;;;14.62;100.00;100730.66;4957219;28;20051;-85
2021/08/29 07:27:27;;;;;;;0.70;0.70;;;;;;;14.70;100.00;100726.84;4971491;28;20042;-82
2021/08/29 07:29:54;;;;;;;0.93;0.60;;;;;;;14.74;100.00;100717.84;4990021;28;20301;-82
2021/08/29 07:32:21;;;;;;;16.48;1.40;;;;;;;14.80;100.00;100707.00;4974816;28;20046;-88
2021/08/29 07:34:48;;;;;;;0.70;0.70;;;;;;;14.82;100.00;100721.97;4958258;28;20060;-84
2021/08/29 07:37:15;;;;;;;0.60;0.60;;;;;;;14.88;100.00;100723.50;4958682;28;20109;-83
2021/08/29 07:39:41;;;;;;;0.60;0.60;;;;;;;14.90;100.00;100714.56;4970129;28;20060;-84
2021/08/29 07:42:08;;;;;;;0.50;0.50;;;;;;;14.93;100.00;100725.09;5014990;28;20044;-82
2021/08/29 07:44:34;;;;;;;0.68;0.68;;;;;;;14.99;100.00;100725.78;5052421;28;20032;-83
2021/08/29 07:47:01;;;;;;;0.47;0.47;;;;;;;15.04;100.00;100723.81;5048415;28;20052;-85
2021/08/29 07:49:28;;;;;;;0.60;0.55;;;;;;;15.07;100.00;100726.38;5022602;28;20052;-85
2021/08/29 07:51:55;;;;;;;0.75;0.70;;;;;;;15.11;100.00;100722.66;5021006;28;20107;-84
2021/08/29 07:54:21;;;;;;;0.60;0.60;;;;;;;15.13;100.00;100721.69;5019662;28;20044;-86
2021/08/29 07:56:48;;;;;;;0.68;0.50;;;;;;;15.19;100.00;100731.22;5048472;28;20069;-84
2021/08/29 07:59:15;;;;;;;0.68;0.68;;;;;;;15.19;100.00;100733.88;5015490;28;20037;-84
2021/08/29 08:01:42;;;;;;;0.65;0.60;;;;;;;15.24;100.00;100733.72;5038369;28;20040;-87
2021/08/29 08:04:09;;;;;;;0.55;0.55;;;;;;;15.28;100.00;100745.97;5032479;28;20068;-86
2021/08/29 08:06:36;;;;;;;0.47;0.47;;;;;;;15.30;100.00;100749.41;5028056;28;20040;-85
2021/08/29 08:09:03;;;;;;;0.50;0.50;;;;;;;15.33;100.00;100752.84;5032035;28;20056;-84
2021/08/29 08:11:30;;;;;;;0.60;0.60;;;;;;;15.37;100.00;100750.91;5033078;28;20437;-85
2021/08/29 08:13:56;;;;;;;1.58;0.60;;;;;;;15.43;100.00;100753.34;5031748;28;20410;-87
2021/08/29 08:16:23;;;;;;;0.65;0.60;;;;;;;15.48;100.00;100759.38;5018662;28;20047;-86
2021/08/29 08:18:50;;;;;;;1.02;0.70;;;;;;;15.52;100.00;100746.81;5034441;28;20506;-86
2021/08/29 08:21:19;;;;;;;1.05;0.60;;;;;;;15.63;100.00;100748.13;5018790;28;20512;-88
2021/08/29 08:23:46;;;;;;;0.70;0.70;;;;;;;15.71;100.00;100740.69;5039184;28;20044;-87
2021/08/29 08:26:19;;;;;;;0.60;0.60;;;;;;;15.72;100.00;100752.22;5019683;28;20127;-87
2021/08/29 08:28:50;;;;;;;0.50;0.50;;;;;;;15.72;100.00;100744.22;5012866;28;20485;-85
2021/08/29 08:31:19;;;;;;;0.93;0.50;;;;;;;15.76;100.00;100746.72;5020190;28;20037;-86
2021/08/29 08:33:47;;;;;;;0.80;0.55;;;;;;;15.79;100.00;100753.72;5037979;28;20139;-87
2021/08/29 08:36:16;;;;;;;0.60;0.60;;;;;;;15.83;100.00;100751.81;5033871;28;20144;-87
2021/08/29 08:38:43;;;;;;;0.73;0.50;;;;;;;15.84;100.00;100757.06;5035129;28;20040;-87
2021/08/29 08:41:10;;;;;;;0.65;0.65;;;;;;;15.85;100.00;100752.59;5030026;28;20044;-87
2021/08/29 08:43:36;;;;;;;0.70;0.63;;;;;;;15.86;100.00;100749.00;5035235;28;20047;-87
2021/08/29 08:46:03;;;;;;;0.57;0.57;;;;;;;15.87;100.00;100761.41;5014075;28;20044;-86
2021/08/29 08:48:31;;;;;;;0.85;0.80;;;;;;;15.89;100.00;100757.75;5026193;28;20040;-85
2021/08/29 08:50:59;;;;;;;0.65;0.65;;;;;;;15.92;100.00;100749.63;5017271;28;20068;-86
2021/08/29 08:53:27;;;;;;;1.98;0.88;;;;;;;16.00;100.00;100757.31;5035326;28;20040;-86
2021/08/29 08:55:54;;;;;;;0.60;0.60;;;;;;;15.98;100.00;100745.84;5028889;28;20498;-88
2021/08/29 08:58:21;;;;;;;1.13;0.60;;;;;;;16.17;100.00;100757.47;5007970;28;20044;-85
2021/08/29 09:00:48;;;;;;;0.80;0.80;;;;;;;16.09;100.00;100754.25;5034401;28;20090;-86
2021/08/29 09:03:16;;;;;;;0.73;0.70;;;;;;;16.12;100.00;100763.91;5056111;23;20458;-83
2021/08/29 09:05:43;;;;;;;0.60;0.60;;;;;;;16.09;100.00;100756.94;4995382;28;20045;-83
2021/08/29 09:08:11;;;;;;;0.70;0.50;;;;;;;16.16;100.00;100766.41;4998881;28;20056;-82
2021/08/29 09:10:37;;;;;;;0.65;0.65;;;;;;;16.25;100.00;100766.03;5025889;28;20064;-84
2021/08/29 09:13:06;;;;;;;0.80;0.70;;;;;;;16.31;100.00;100768.44;5033809;28;20041;-83
2021/08/29 09:15:33;;;;;;;0.65;0.60;;;;;;;16.27;100.00;100760.63;5003904;28;20663;-83
2021/08/29 09:18:00;;;;;;;1.08;0.60;;;;;;;16.35;100.00;100765.63;5011279;28;20059;-83
2021/08/29 09:20:35;;;;;;;1.30;0.60;;;;;;;16.38;100.00;100761.00;5033235;28;20044;-83
2021/08/29 09:23:05;;;;;;;0.60;0.60;;;;;;;16.31;100.00;100760.44;5024891;28;20052;-83
2021/08/29 09:25:35;;;;;;;0.50;0.50;;;;;;;16.30;100.00;100764.00;5016902;28;20041;-83
2021/08/29 09:28:04;;;;;;;1.00;0.73;;;;;;;16.43;100.00;100766.16;5025330;28;20771;-83
2021/08/29 09:30:31;;;;;;;0.82;0.50;;;;;;;16.52;100.00;100763.97;5024855;28;20051;-83
2021/08/29 09:33:03;;;;;;;1.48;0.85;;;;;;;16.66;100.00;100757.19;5045162;28;20742;-84
2021/08/29 09:35:34;;;;;;;1.15;0.88;;;;;;;16.76;100.00;100754.06;5009151;28;20047;-83
2021/08/29 09:38:04;;;;;;;0.60;0.60;;;;;;;16.89;100.00;100743.69;4993098;28;20144;-83
2021/08/29 09:40:34;;;;;;;1.73;0.80;;;;;;;17.00;100.00;100745.88;5032828;28;20133;-83
2021/08/29 09:43:03;;;;;;;1.60;0.75;;;;;;;17.11;100.00;100739.09;5010529;28;20072;-83
2021/08/29 09:45:40;;;;;;;0.60;0.60;;;;;;;17.13;100.00;100747.91;5035060;28;20037;-83
2021/08/29 09:48:09;;;;;;;1.02;0.77;;;;;;;17.20;100.00;100745.81;5012625;28;20542;-83
2021/08/29 09:50:37;;;;;;;0.60;0.60;;;;;;;17.14;100.00;100738.09;5025953;28;20073;-84
2021/08/29 09:53:09;;;;;;;1.17;1.00;;;;;;;17.14;100.00;100746.97;5003390;28;20041;-83
2021/08/29 09:55:42;;;;;;;1.50;1.40;;;;;;;17.19;100.00;100735.22;5013433;28;20140;-84
2021/08/29 09:58:27;;;;;;;1.98;1.65;;;;;;;17.22;100.00;100735.06;5022526;28;20041;-84
2021/08/29 10:01:12;;;;;;;0.93;0.90;;;;;;;17.23;100.00;100726.97;5024740;28;20032;-83
2021/08/29 10:03:47;;;;;;;1.40;1.00;;;;;;;17.27;100.00;100728.59;5014137;28;20037;-84
2021/08/29 10:06:17;;;;;;;0.70;0.70;;;;;;;17.33;100.00;100738.13;5009026;28;20042;-84
2021/08/29 10:08:54;;;;;;;0.88;0.63;;;;;;;17.28;100.00;100730.31;5028113;28;20041;-84
2021/08/29 10:11:23;;;;;;;0.95;0.80;;;;;;;17.20;100.00;100732.47;5021871;28;20036;-83
2021/08/29 10:13:54;;;;;;;1.13;1.00;;;;;;;17.39;100.00;100738.66;4997670;28;20045;-83
2021/08/29 10:16:22;;;;;;;1.27;0.90;;;;;;;17.35;100.00;100737.09;5029913;28;20127;-82
2021/08/29 10:18:51;;;;;;;0.77;0.70;;;;;;;17.25;100.00;100737.63;4999068;28;20418;-83
2021/08/29 10:21:20;;;;;;;0.90;0.75;;;;;;;17.33;100.00;100732.78;5021413;28;20037;-84
2021/08/29 10:23:50;;;;;;;1.00;0.60;;;;;;;17.37;100.00;100732.53;5030117;28;20092;-83
2021/08/29 10:26:18;;;;;;;0.95;0.95;;;;;;;17.47;100.00;100726.75;5016168;28;20049;-84
2021/08/29 10:28:50;;;;;;;2.40;1.00;;;;;;;17.77;100.00;100719.97;4997341;28;20048;-84
2021/08/29 10:31:19;;;;;;;2.00;1.00;;;;;;;17.81;100.00;100724.22;4996893;28;20490;-84
2021/08/29 10:33:49;;;;;;;0.95;0.82;;;;;;;17.95;100.00;100716.38;5010357;28;20048;-84
2021/08/29 10:36:17;;;;;;;1.30;1.20;;;;;;;17.93;100.00;100718.28;5009817;28;20053;-84
2021/08/29 10:38:45;;;;;;;1.02;0.85;;;;;;;17.81;100.00;100710.84;5017643;28;20179;-84
2021/08/29 10:41:16;;;;;;;1.10;1.00;;;;;;;17.82;100.00;100717.06;5012529;28;20072;-83
2021/08/29 10:43:43;;;;;;;1.60;1.10;;;;;;;17.89;100.00;100706.00;5012032;28;20095;-82
2021/08/29 10:46:10;;;;;;;7.88;5.18;;;;;;;18.07;100.00;100717.56;4994387;28;20084;-83
2021/08/29 10:48:39;;;;;;;1.70;1.38;;;;;;;18.08;100.00;100708.63;5024416;28;20040;-82
2021/08/29 10:51:10;;;;;;;1.20;0.82;;;;;;;18.23;99.11;100706.94;5030414;28;20045;-83
2021/08/29 10:53:40;;;;;;;1.10;1.00;;;;;;;18.16;97.52;100706.44;5018776;28;20541;-82
2021/08/29 10:56:19;;;;;;;1.13;0.98;;;;;;;18.28;98.66;100708.47;5037828;28;20651;-82
2021/08/29 10:58:48;;;;;;;0.90;0.80;;;;;;;18.20;99.33;100709.78;5028760;28;20136;-81
2021/08/29 11:01:34;;;;;;;1.40;1.20;;;;;;;18.17;100.00;100715.31;5011974;28;20056;-83
2021/08/29 11:04:17;;;;;;;1.00;1.00;;;;;;;18.14;96.22;100715.44;4965947;28;1425381;-82
2021/08/29 11:06:48;;;;;;;1.15;1.00;;;;;;;18.25;98.71;100713.97;5026415;28;20049;-81
2021/08/29 11:09:36;;;;;;;1.23;1.10;;;;;;;18.15;98.57;100725.19;5022370;28;20048;-81
2021/08/29 11:12:12;;;;;;;1.92;1.05;;;;;;;18.15;93.69;100709.16;5027938;28;20037;-81
2021/08/29 11:14:47;;;;;;;1.55;1.10;;;;;;;18.38;98.46;100713.31;5020120;28;20037;-81
2021/08/29 11:17:17;;;;;;;1.48;1.10;;;;;;;18.49;96.43;100716.28;5016806;28;20052;-81
2021/08/29 11:19:48;;;;;;;2.17;1.20;;;;;;;18.55;100.00;100715.97;5020351;28;20041;-80
2021/08/29 11:22:20;;;;;;;1.23;0.90;;;;;;;18.60;100.00;100719.28;5015283;28;20056;-81
2021/08/29 11:24:52;;;;;;;1.40;1.08;;;;;;;18.65;100.00;100713.69;5013429;28;20045;-80